Time;durP1;ratioP1;P1;durP2;ratioP2;P2;SDS_P1;SDS_P2;PMS_P1;PMS_P2;Temp;Humidity;BMP_temperature;BMP_pressure;BME280_temperature;BME280_humidity;BME280_pressure;Samples;Min_cycle;Max_cycle;Signal;HPM_P1;HPM_P2
2023/04/15 00:01:21;;;;;;;8.65;2.10;;;;;;;;;;5076851;28;20124;-56
2023/04/15 00:03:47;;;;;;;3.80;2.22;;;;;;;;;;5076809;28;20060;-55
2023/04/15 00:06:13;;;;;;;3.55;1.98;;;;;;;;;;5077154;28;20468;-56
2023/04/15 00:08:39;;;;;;;5.70;1.73;;;;;;;;;;5076451;28;20544;-56
2023/04/15 00:11:05;;;;;;;2.92;1.27;;;;;;;;;;5076357;28;20039;-57
2023/04/15 00:13:32;;;;;;;2.78;1.52;;;;;;;;;;5076969;28;20028;-55
2023/04/15 00:15:59;;;;;;;3.45;1.63;;;;;;;;;;5076211;28;20422;-57
2023/04/15 00:18:25;;;;;;;2.30;1.48;;;;;;;;;;5076516;28;20027;-56
2023/04/15 00:20:51;;;;;;;3.67;1.73;;;;;;;;;;5076505;28;20032;-57
2023/04/15 00:23:17;;;;;;;5.22;2.00;;;;;;;;;;5076521;28;20024;-54
2023/04/15 00:25:43;;;;;;;3.35;2.05;;;;;;;;;;5076690;28;20367;-55
2023/04/15 00:28:09;;;;;;;2.55;1.77;;;;;;;;;;5076925;28;20031;-52
2023/04/15 00:30:35;;;;;;;3.22;2.17;;;;;;;;;;5076931;28;20024;-57
2023/04/15 00:33:02;;;;;;;3.10;2.05;;;;;;;;;;5076333;28;20474;-53
2023/04/15 00:35:28;;;;;;;3.97;2.42;;;;;;;;;;5076337;28;20029;-54
2023/04/15 00:37:54;;;;;;;6.45;2.75;;;;;;;;;;5074892;28;20035;-56
2023/04/15 00:40:23;;;;;;;5.53;2.50;;;;;;;;;;5076417;28;20084;-58
2023/04/15 00:42:49;;;;;;;3.03;2.30;;;;;;;;;;5076844;28;20075;-58
2023/04/15 00:45:15;;;;;;;3.88;2.60;;;;;;;;;;5076298;28;20029;-58
2023/04/15 00:47:42;;;;;;;6.10;3.10;;;;;;;;;;5075816;28;20028;-58
2023/04/15 00:50:08;;;;;;;5.43;2.70;;;;;;;;;;5076120;28;20082;-58
2023/04/15 00:52:35;;;;;;;3.70;3.30;;;;;;;;;;5076032;28;20029;-55
2023/04/15 00:55:01;;;;;;;5.63;3.15;;;;;;;;;;5075927;28;20036;-57
2023/04/15 00:57:28;;;;;;;6.07;2.58;;;;;;;;;;5075891;28;20055;-54
2023/04/15 00:59:55;;;;;;;5.82;2.83;;;;;;;;;;5076086;28;20020;-57
2023/04/15 01:02:21;;;;;;;8.02;2.55;;;;;;;;;;5075743;28;20035;-57
2023/04/15 01:04:48;;;;;;;4.93;3.58;;;;;;;;;;5075796;28;20024;-57
2023/04/15 01:07:14;;;;;;;3.55;2.28;;;;;;;;;;5076324;28;20139;-57
2023/04/15 01:09:41;;;;;;;3.28;2.38;;;;;;;;;;5075693;28;20469;-57
2023/04/15 01:12:09;;;;;;;6.47;2.47;;;;;;;;;;5076155;28;20401;-55
2023/04/15 01:14:35;;;;;;;5.55;3.15;;;;;;;;;;5075340;28;20059;-55
2023/04/15 01:17:01;;;;;;;3.00;2.08;;;;;;;;;;5076044;28;20047;-55
2023/04/15 01:19:28;;;;;;;5.30;2.20;;;;;;;;;;5075721;28;20470;-56
2023/04/15 01:21:54;;;;;;;5.07;2.40;;;;;;;;;;5075405;28;20035;-57
2023/04/15 01:24:20;;;;;;;3.78;2.90;;;;;;;;;;5076139;28;20367;-55
2023/04/15 01:26:46;;;;;;;4.60;3.40;;;;;;;;;;5075351;28;20521;-57
2023/04/15 01:29:12;;;;;;;4.38;2.42;;;;;;;;;;5075876;28;20362;-56
2023/04/15 01:31:38;;;;;;;3.53;2.63;;;;;;;;;;5075580;28;20079;-56
2023/04/15 01:34:04;;;;;;;4.55;3.10;;;;;;;;;;5074733;28;20025;-57
2023/04/15 01:36:30;;;;;;;5.32;2.63;;;;;;;;;;5075412;28;20029;-55
2023/04/15 01:38:56;;;;;;;8.25;3.30;;;;;;;;;;5074887;28;20474;-56
2023/04/15 01:41:26;;;;;;;4.25;2.85;;;;;;;;;;5074685;28;20028;-57
2023/04/15 01:43:52;;;;;;;3.53;2.20;;;;;;;;;;5074740;28;20029;-56
2023/04/15 01:46:18;;;;;;;3.35;2.42;;;;;;;;;;5074899;28;20370;-55
2023/04/15 01:48:44;;;;;;;3.60;2.47;;;;;;;;;;5074893;28;20103;-57
2023/04/15 01:51:10;;;;;;;2.67;2.47;;;;;;;;;;5075330;28;20141;-56
2023/04/15 01:53:36;;;;;;;5.30;2.25;;;;;;;;;;5074769;28;20025;-57
2023/04/15 01:56:03;;;;;;;3.95;2.05;;;;;;;;;;5074789;28;20043;-56
2023/04/15 01:58:29;;;;;;;5.18;2.50;;;;;;;;;;5073825;28;20070;-57
2023/04/15 02:00:55;;;;;;;4.50;3.10;;;;;;;;;;5075330;28;20035;-55
2023/04/15 02:03:22;;;;;;;4.15;2.92;;;;;;;;;;5074539;28;20081;-57
2023/04/15 02:05:48;;;;;;;3.95;2.00;;;;;;;;;;5075094;28;20025;-55
2023/04/15 02:08:14;;;;;;;3.42;2.55;;;;;;;;;;5074696;28;20097;-57
2023/04/15 02:10:40;;;;;;;2.95;2.35;;;;;;;;;;5074407;28;20420;-57
2023/04/15 02:13:06;;;;;;;3.40;2.30;;;;;;;;;;5074763;28;20466;-56
2023/04/15 02:15:32;;;;;;;2.72;2.03;;;;;;;;;;5074545;28;20059;-53
2023/04/15 02:17:59;;;;;;;4.03;2.13;;;;;;;;;;5074158;28;20078;-56
2023/04/15 02:20:25;;;;;;;5.00;2.25;;;;;;;;;;5075523;28;20485;-57
2023/04/15 02:22:51;;;;;;;5.05;2.60;;;;;;;;;;5074495;28;20107;-56
2023/04/15 02:25:17;;;;;;;7.70;2.58;;;;;;;;;;5074791;28;20107;-57
2023/04/15 02:27:43;;;;;;;4.65;2.42;;;;;;;;;;5075143;28;20362;-57
2023/04/15 02:30:10;;;;;;;3.85;2.70;;;;;;;;;;5074378;28;20021;-57
2023/04/15 02:32:36;;;;;;;5.68;2.95;;;;;;;;;;5074117;28;20074;-55
2023/04/15 02:35:06;;;;;;;4.28;2.33;;;;;;;;;;5074598;28;20063;-55
2023/04/15 02:37:39;;;;;;;5.50;2.53;;;;;;;;;;5074132;28;20046;-55
2023/04/15 02:40:05;;;;;;;3.22;2.00;;;;;;;;;;5074386;28;20275;-56
2023/04/15 02:42:31;;;;;;;4.00;2.40;;;;;;;;;;5074524;28;20024;-56
2023/04/15 02:44:57;;;;;;;4.53;2.40;;;;;;;;;;5074230;28;20093;-56
2023/04/15 02:47:23;;;;;;;4.07;2.42;;;;;;;;;;5074479;28;20032;-56
2023/04/15 02:49:49;;;;;;;4.25;1.92;;;;;;;;;;5073874;28;20054;-57
2023/04/15 02:52:15;;;;;;;4.18;2.08;;;;;;;;;;5073850;28;20021;-55
2023/04/15 02:54:41;;;;;;;5.47;1.90;;;;;;;;;;5073820;28;20035;-55
2023/04/15 02:57:07;;;;;;;3.45;2.03;;;;;;;;;;5073893;28;20028;-58
2023/04/15 02:59:33;;;;;;;2.90;2.03;;;;;;;;;;5073987;28;20366;-56
2023/04/15 03:01:59;;;;;;;3.35;1.83;;;;;;;;;;5074234;28;20032;-56
2023/04/15 03:04:28;;;;;;;6.95;3.25;;;;;;;;;;5074217;28;20028;-51
2023/04/15 03:06:55;;;;;;;3.28;2.15;;;;;;;;;;5073427;28;20481;-56
2023/04/15 03:09:21;;;;;;;4.30;1.80;;;;;;;;;;5073434;28;20458;-57
2023/04/15 03:11:47;;;;;;;14.27;2.47;;;;;;;;;;5074180;28;20090;-56
2023/04/15 03:14:13;;;;;;;3.33;2.20;;;;;;;;;;5073614;28;20040;-57
2023/04/15 03:16:39;;;;;;;5.15;2.47;;;;;;;;;;5073287;28;20055;-57
2023/04/15 03:19:05;;;;;;;2.78;1.58;;;;;;;;;;5073793;28;20375;-55
2023/04/15 03:21:31;;;;;;;5.97;1.90;;;;;;;;;;5073839;28;20103;-56
2023/04/15 03:23:57;;;;;;;4.20;2.67;;;;;;;;;;5073566;28;20517;-55
2023/04/15 03:26:24;;;;;;;4.82;1.85;;;;;;;;;;5073551;28;20032;-57
2023/04/15 03:28:50;;;;;;;3.20;2.15;;;;;;;;;;5073765;28;20025;-56
2023/04/15 03:31:16;;;;;;;4.20;2.30;;;;;;;;;;5073552;28;20134;-57
2023/04/15 03:33:42;;;;;;;3.42;1.63;;;;;;;;;;5073690;28;20381;-56
2023/04/15 03:36:08;;;;;;;3.03;1.63;;;;;;;;;;5073606;28;20029;-56
2023/04/15 03:38:34;;;;;;;3.58;1.65;;;;;;;;;;5073443;28;20037;-56
2023/04/15 03:41:00;;;;;;;5.95;2.20;;;;;;;;;;5073873;28;20070;-55
2023/04/15 03:43:26;;;;;;;3.63;2.00;;;;;;;;;;5073436;28;20432;-57
2023/04/15 03:45:52;;;;;;;3.30;1.80;;;;;;;;;;5073401;28;20028;-55
2023/04/15 03:48:18;;;;;;;3.85;2.22;;;;;;;;;;5073165;28;20028;-56
2023/04/15 03:50:44;;;;;;;4.53;2.05;;;;;;;;;;5073605;28;20028;-55
2023/04/15 03:53:10;;;;;;;3.67;1.95;;;;;;;;;;5073642;28;20058;-55
2023/04/15 03:55:35;;;;;;;5.78;2.55;;;;;;;;;;5073660;28;20478;-55
2023/04/15 03:58:01;;;;;;;3.05;1.70;;;;;;;;;;5072878;28;20055;-56
2023/04/15 04:00:27;;;;;;;9.32;2.83;;;;;;;;;;5073125;28;20020;-56
2023/04/15 04:02:53;;;;;;;6.50;2.17;;;;;;;;;;5073745;28;20021;-55
2023/04/15 04:05:19;;;;;;;2.65;1.88;;;;;;;;;;5073597;28;20040;-57
2023/04/15 04:07:46;;;;;;;2.92;1.88;;;;;;;;;;5073902;28;20033;-55
2023/04/15 04:10:12;;;;;;;4.43;2.03;;;;;;;;;;5073697;28;20029;-57
2023/04/15 04:12:38;;;;;;;3.60;2.10;;;;;;;;;;5073663;28;20339;-56
2023/04/15 04:15:04;;;;;;;6.43;2.15;;;;;;;;;;5073732;28;20438;-53
2023/04/15 04:17:30;;;;;;;3.35;1.67;;;;;;;;;;5073093;28;20031;-52
2023/04/15 04:19:56;;;;;;;6.07;3.55;;;;;;;;;;5073025;28;20111;-55
2023/04/15 04:22:23;;;;;;;3.03;1.92;;;;;;;;;;5074705;28;20035;-55
2023/04/15 04:24:49;;;;;;;5.53;1.73;;;;;;;;;;5077395;28;20027;-57
2023/04/15 04:27:15;;;;;;;4.22;2.50;;;;;;;;;;5077458;28;20021;-53
2023/04/15 04:29:41;;;;;;;3.38;1.60;;;;;;;;;;5076529;28;20032;-55
2023/04/15 04:32:07;;;;;;;2.90;2.28;;;;;;;;;;5076762;28;20082;-57
2023/04/15 04:34:33;;;;;;;3.33;1.58;;;;;;;;;;5077243;28;20357;-55
2023/04/15 04:36:59;;;;;;;2.88;1.98;;;;;;;;;;5076514;28;20540;-57
2023/04/15 04:39:25;;;;;;;3.83;2.08;;;;;;;;;;5076316;28;20032;-56
2023/04/15 04:41:51;;;;;;;3.03;1.80;;;;;;;;;;5076756;28;20092;-56
2023/04/15 04:44:17;;;;;;;3.53;2.38;;;;;;;;;;5076512;28;20478;-57
2023/04/15 04:46:43;;;;;;;2.38;1.92;;;;;;;;;;5076581;28;20386;-55
2023/04/15 04:49:09;;;;;;;2.42;1.58;;;;;;;;;;5076545;28;20032;-56
2023/04/15 04:51:35;;;;;;;5.47;2.50;;;;;;;;;;5076136;28;20020;-57
2023/04/15 04:54:01;;;;;;;2.78;1.77;;;;;;;;;;5075815;28;20467;-57
2023/04/15 04:56:27;;;;;;;5.15;3.50;;;;;;;;;;5076622;28;20025;-56
2023/04/15 04:58:53;;;;;;;2.92;1.80;;;;;;;;;;5075672;28;20089;-57
2023/04/15 05:01:19;;;;;;;4.28;2.38;;;;;;;;;;5075948;28;20033;-56
2023/04/15 05:03:45;;;;;;;5.35;2.78;;;;;;;;;;5075881;28;20025;-56
2023/04/15 05:06:11;;;;;;;3.67;2.88;;;;;;;;;;5076396;28;20074;-55
2023/04/15 05:08:37;;;;;;;3.45;2.85;;;;;;;;;;5075814;28;20029;-54
2023/04/15 05:11:03;;;;;;;3.53;2.55;;;;;;;;;;5076291;28;20363;-56
2023/04/15 05:13:29;;;;;;;4.57;3.20;;;;;;;;;;5075813;28;20032;-56
2023/04/15 05:15:56;;;;;;;3.38;2.83;;;;;;;;;;5075187;28;20482;-57
2023/04/15 05:18:22;;;;;;;8.93;4.20;;;;;;;;;;5075525;28;20028;-57
2023/04/15 05:20:48;;;;;;;6.00;4.30;;;;;;;;;;5075880;28;20032;-54
2023/04/15 05:23:15;;;;;;;10.88;4.00;;;;;;;;;;5075504;28;20477;-57
2023/04/15 05:25:41;;;;;;;14.88;5.07;;;;;;;;;;5076024;28;20032;-56
2023/04/15 05:28:07;;;;;;;10.05;5.03;;;;;;;;;;5075697;28;20095;-53
2023/04/15 05:30:33;;;;;;;6.35;4.80;;;;;;;;;;5075419;28;20033;-54
2023/04/15 05:32:59;;;;;;;9.80;5.10;;;;;;;;;;5075040;28;20097;-55
2023/04/15 05:35:26;;;;;;;9.32;4.47;;;;;;;;;;5075822;28;20069;-56
2023/04/15 05:37:51;;;;;;;7.65;5.50;;;;;;;;;;5075231;28;20037;-56
2023/04/15 05:40:18;;;;;;;9.57;5.13;;;;;;;;;;5075074;28;20411;-56
2023/04/15 05:42:45;;;;;;;7.80;5.18;;;;;;;;;;5074989;28;20462;-55
2023/04/15 05:45:11;;;;;;;9.68;4.47;;;;;;;;;;5075027;28;20067;-55
2023/04/15 05:47:37;;;;;;;7.00;4.53;;;;;;;;;;5075468;28;20033;-56
2023/04/15 05:50:03;;;;;;;5.53;3.85;;;;;;;;;;5074888;28;20032;-57
2023/04/15 05:52:29;;;;;;;9.80;3.58;;;;;;;;;;5075406;28;20476;-56
2023/04/15 05:54:55;;;;;;;5.32;3.92;;;;;;;;;;5074835;28;20025;-56
2023/04/15 05:57:21;;;;;;;6.75;4.75;;;;;;;;;;5075455;28;20082;-56
2023/04/15 05:59:48;;;;;;;6.60;5.45;;;;;;;;;;5074713;28;20374;-57
2023/04/15 06:02:14;;;;;;;8.90;5.90;;;;;;;;;;5074422;28;20462;-56
2023/04/15 06:04:40;;;;;;;6.88;4.78;;;;;;;;;;5075127;28;20509;-56
2023/04/15 06:07:06;;;;;;;8.15;4.75;;;;;;;;;;5075531;28;20024;-59
2023/04/15 06:09:32;;;;;;;5.68;4.22;;;;;;;;;;5075108;28;20094;-56
2023/04/15 06:11:58;;;;;;;10.85;5.68;;;;;;;;;;5074962;28;20457;-56
2023/04/15 06:14:24;;;;;;;8.38;4.93;;;;;;;;;;5074457;28;20371;-58
2023/04/15 06:16:50;;;;;;;8.88;5.50;;;;;;;;;;5074496;28;20062;-57
2023/04/15 06:19:17;;;;;;;6.38;4.80;;;;;;;;;;5074656;28;20033;-56
2023/04/15 06:21:43;;;;;;;8.88;6.30;;;;;;;;;;5074217;28;20111;-58
2023/04/15 06:24:09;;;;;;;7.90;4.50;;;;;;;;;;5074907;28;20029;-57
2023/04/15 06:26:35;;;;;;;7.57;5.03;;;;;;;;;;5074880;28;20027;-57
2023/04/15 06:29:01;;;;;;;8.35;4.75;;;;;;;;;;5074265;28;20033;-55
2023/04/15 06:31:27;;;;;;;7.78;4.85;;;;;;;;;;5074137;28;20427;-56
2023/04/15 06:33:53;;;;;;;7.32;3.92;;;;;;;;;;5074471;28;20335;-57
2023/04/15 06:36:19;;;;;;;6.13;4.20;;;;;;;;;;5074742;28;20455;-57
2023/04/15 06:38:45;;;;;;;8.25;4.43;;;;;;;;;;5073628;28;20029;-57
2023/04/15 06:41:11;;;;;;;10.00;4.15;;;;;;;;;;5074265;28;20490;-56
2023/04/15 06:43:38;;;;;;;8.20;4.50;;;;;;;;;;5074005;28;20024;-57
2023/04/15 06:46:04;;;;;;;8.13;4.30;;;;;;;;;;5073959;28;20470;-56
2023/04/15 06:48:30;;;;;;;7.38;4.10;;;;;;;;;;5074118;28;20476;-55
2023/04/15 06:50:57;;;;;;;7.05;4.28;;;;;;;;;;5073921;28;20025;-57
2023/04/15 06:53:23;;;;;;;8.02;4.53;;;;;;;;;;5073544;28;20154;-56
2023/04/15 06:55:49;;;;;;;6.40;3.42;;;;;;;;;;5074483;28;20056;-58
2023/04/15 06:58:15;;;;;;;6.75;4.57;;;;;;;;;;5073688;28;20429;-58
2023/04/15 07:00:41;;;;;;;4.50;3.33;;;;;;;;;;5074037;28;20036;-57
2023/04/15 07:03:09;;;;;;;5.13;3.85;;;;;;;;;;5074591;28;20358;-56
2023/04/15 07:05:35;;;;;;;4.68;3.42;;;;;;;;;;5074536;28;20024;-57
2023/04/15 07:08:01;;;;;;;6.28;4.32;;;;;;;;;;5074215;28;20362;-58
2023/04/15 07:10:27;;;;;;;5.72;3.88;;;;;;;;;;5074105;28;20061;-57
2023/04/15 07:12:53;;;;;;;5.18;3.53;;;;;;;;;;5073992;28;20052;-55
2023/04/15 07:15:19;;;;;;;10.05;4.68;;;;;;;;;;5073933;28;20049;-57
2023/04/15 07:17:45;;;;;;;9.25;4.25;;;;;;;;;;5073663;28;20020;-58
2023/04/15 07:20:11;;;;;;;5.15;4.38;;;;;;;;;;5073827;28;20040;-58
2023/04/15 07:22:37;;;;;;;8.27;4.63;;;;;;;;;;5073847;28;20031;-57
2023/04/15 07:25:04;;;;;;;6.78;3.28;;;;;;;;;;5073468;28;20028;-56
2023/04/15 07:27:30;;;;;;;9.68;4.28;;;;;;;;;;5073798;28;20071;-57
2023/04/15 07:29:56;;;;;;;7.07;4.55;;;;;;;;;;5073842;28;20071;-57
2023/04/15 07:32:22;;;;;;;7.13;4.47;;;;;;;;;;5074029;28;20072;-58
2023/04/15 07:34:48;;;;;;;5.90;2.95;;;;;;;;;;5073980;28;20025;-57
2023/04/15 07:37:14;;;;;;;4.82;3.60;;;;;;;;;;5073848;28;20405;-57
2023/04/15 07:39:41;;;;;;;5.50;4.03;;;;;;;;;;5074218;28;20028;-58
2023/04/15 07:42:07;;;;;;;3.85;2.92;;;;;;;;;;5072904;28;20478;-58
2023/04/15 07:44:33;;;;;;;9.05;4.00;;;;;;;;;;5073366;28;20035;-58
2023/04/15 07:46:59;;;;;;;5.60;3.95;;;;;;;;;;5073988;28;20514;-58
2023/04/15 07:49:25;;;;;;;5.63;3.60;;;;;;;;;;5072853;28;20039;-57
2023/04/15 07:51:51;;;;;;;6.20;4.30;;;;;;;;;;5073053;28;20029;-58
2023/04/15 07:54:17;;;;;;;5.07;3.03;;;;;;;;;;5073632;28;20021;-58
2023/04/15 07:56:43;;;;;;;6.65;4.05;;;;;;;;;;5073927;28;20047;-58
2023/04/15 07:59:09;;;;;;;9.88;4.45;;;;;;;;;;5076959;28;20459;-57
2023/04/15 08:01:35;;;;;;;6.72;2.92;;;;;;;;;;5077505;28;20028;-58
2023/04/15 08:04:01;;;;;;;5.18;3.60;;;;;;;;;;5077017;28;20024;-58
2023/04/15 08:06:27;;;;;;;5.78;3.00;;;;;;;;;;5077300;28;20025;-61
2023/04/15 08:08:54;;;;;;;6.97;4.22;;;;;;;;;;5076527;28;20448;-58
2023/04/15 08:11:20;;;;;;;6.35;4.13;;;;;;;;;;5076910;28;20107;-58
2023/04/15 08:13:46;;;;;;;5.47;4.00;;;;;;;;;;5076845;28;20028;-59
2023/04/15 08:16:30;;;;;;;8.70;3.72;;;;;;;;;;5077044;28;20051;-58
2023/04/15 08:18:56;;;;;;;8.30;4.43;;;;;;;;;;5076805;28;20035;-58
2023/04/15 08:21:22;;;;;;;5.88;3.55;;;;;;;;;;5076609;28;20027;-58
2023/04/15 08:23:50;;;;;;;9.13;4.47;;;;;;;;;;5076544;28;20033;-58
2023/04/15 08:26:16;;;;;;;6.68;4.45;;;;;;;;;;5077448;28;20024;-58
2023/04/15 08:28:42;;;;;;;4.47;3.22;;;;;;;;;;5077278;28;20389;-57
2023/04/15 08:31:08;;;;;;;4.50;2.97;;;;;;;;;;5076322;28;20035;-58
2023/04/15 08:33:34;;;;;;;7.45;2.80;;;;;;;;;;5076355;28;20023;-58
2023/04/15 08:36:00;;;;;;;4.90;3.33;;;;;;;;;;5076574;28;20028;-57
2023/04/15 08:38:26;;;;;;;5.43;3.03;;;;;;;;;;5076616;28;20134;-58
2023/04/15 08:40:52;;;;;;;5.25;2.55;;;;;;;;;;5076296;28;20028;-58
2023/04/15 08:43:23;;;;;;;6.18;2.25;;;;;;;;;;5076985;28;20328;-58
2023/04/15 08:45:51;;;;;;;7.47;3.33;;;;;;;;;;5076235;28;20074;-57
2023/04/15 08:48:17;;;;;;;5.40;3.47;;;;;;;;;;5076423;28;20113;-57
2023/04/15 08:50:43;;;;;;;5.53;2.70;;;;;;;;;;5075840;28;20020;-58
2023/04/15 08:53:10;;;;;;;4.20;1.85;;;;;;;;;;5075740;28;20470;-57
2023/04/15 08:55:37;;;;;;;8.98;2.15;;;;;;;;;;5076360;28;20027;-58
2023/04/15 08:58:04;;;;;;;3.33;1.55;;;;;;;;;;5076002;28;20021;-58
2023/04/15 09:00:30;;;;;;;6.45;2.30;;;;;;;;;;5075568;28;20093;-58
2023/04/15 09:02:56;;;;;;;5.38;2.38;;;;;;;;;;5076412;28;20131;-58
2023/04/15 09:05:22;;;;;;;4.07;1.85;;;;;;;;;;5076501;28;20478;-58
2023/04/15 09:07:50;;;;;;;4.55;1.52;;;;;;;;;;5075596;28;20451;-58
2023/04/15 09:10:16;;;;;;;4.88;1.75;;;;;;;;;;5075539;28;20041;-58
2023/04/15 09:12:42;;;;;;;2.88;0.85;;;;;;;;;;5075346;28;20035;-58
2023/04/15 09:15:11;;;;;;;6.47;2.08;;;;;;;;;;5075430;28;20478;-58
2023/04/15 09:17:41;;;;;;;2.20;1.58;;;;;;;;;;5076334;28;20032;-58
2023/04/15 09:20:08;;;;;;;2.60;1.48;;;;;;;;;;5075896;28;20370;-58
2023/04/15 09:22:34;;;;;;;3.03;1.42;;;;;;;;;;5075399;28;20416;-58
2023/04/15 09:25:00;;;;;;;2.00;1.13;;;;;;;;;;5075331;28;20115;-58
2023/04/15 09:27:26;;;;;;;5.95;1.50;;;;;;;;;;5075333;28;20375;-58
2023/04/15 09:29:53;;;;;;;3.33;1.33;;;;;;;;;;5075225;28;20035;-58
2023/04/15 09:32:22;;;;;;;2.10;1.23;;;;;;;;;;5075614;28;20358;-58
2023/04/15 09:34:48;;;;;;;4.00;2.10;;;;;;;;;;5075230;28;20021;-59
2023/04/15 09:37:17;;;;;;;2.40;1.27;;;;;;;;;;5075849;28;20118;-58
2023/04/15 09:39:47;;;;;;;5.28;2.92;;;;;;;;;;5074880;28;20059;-58
2023/04/15 09:42:13;;;;;;;4.33;3.00;;;;;;;;;;5074844;28;20032;-58
2023/04/15 09:44:39;;;;;;;5.55;3.38;;;;;;;;;;5075561;28;20348;-58
2023/04/15 09:47:05;;;;;;;2.45;1.90;;;;;;;;;;5074901;28;20115;-58
2023/04/15 09:49:31;;;;;;;3.60;2.08;;;;;;;;;;5074261;28;20028;-59
2023/04/15 09:51:58;;;;;;;3.20;1.80;;;;;;;;;;5074879;28;20104;-59
2023/04/15 09:54:24;;;;;;;2.95;1.50;;;;;;;;;;5074657;28;20222;-58
2023/04/15 09:56:50;;;;;;;3.42;2.45;;;;;;;;;;5075204;28;20070;-58
2023/04/15 09:59:16;;;;;;;3.03;1.70;;;;;;;;;;5075078;28;20446;-58
2023/04/15 10:01:42;;;;;;;4.28;2.13;;;;;;;;;;5074627;28;20063;-58
2023/04/15 10:04:08;;;;;;;4.15;2.15;;;;;;;;;;5075150;28;20096;-58
2023/04/15 10:06:35;;;;;;;4.45;2.05;;;;;;;;;;5074722;28;20035;-58
2023/04/15 10:09:01;;;;;;;6.60;1.95;;;;;;;;;;5074455;28;20035;-58
2023/04/15 10:11:31;;;;;;;4.88;2.22;;;;;;;;;;5074476;28;20386;-58
2023/04/15 10:13:57;;;;;;;5.07;3.00;;;;;;;;;;5074849;28;20396;-58
2023/04/15 10:16:26;;;;;;;3.70;2.05;;;;;;;;;;5075068;28;20028;-58
2023/04/15 10:18:56;;;;;;;3.22;1.50;;;;;;;;;;5074112;28;20020;-58
2023/04/15 10:21:22;;;;;;;6.03;1.97;;;;;;;;;;5074295;28;20086;-58
2023/04/15 10:23:50;;;;;;;3.40;1.40;;;;;;;;;;5074722;28;20067;-58
2023/04/15 10:26:16;;;;;;;4.72;2.42;;;;;;;;;;5074564;28;20112;-58
2023/04/15 10:28:43;;;;;;;3.70;2.17;;;;;;;;;;5073984;28;20028;-58
2023/04/15 10:31:12;;;;;;;5.22;2.30;;;;;;;;;;5074343;28;20028;-58
2023/04/15 10:33:39;;;;;;;3.33;2.00;;;;;;;;;;5073921;28;20032;-58
2023/04/15 10:36:05;;;;;;;3.97;2.22;;;;;;;;;;5073683;28;20024;-59
2023/04/15 10:38:32;;;;;;;5.75;2.05;;;;;;;;;;5073955;28;20104;-58
2023/04/15 10:41:17;;;;;;;6.70;2.25;;;;;;;;;;5073879;28;20036;-58
2023/04/15 10:43:48;;;;;;;3.97;1.98;;;;;;;;;;5073556;28;20497;-58
2023/04/15 10:46:16;;;;;;;2.10;1.15;;;;;;;;;;5074446;28;20064;-58
2023/04/15 10:48:49;;;;;;;6.97;2.10;;;;;;;;;;5073578;28;20526;-58
2023/04/15 10:51:15;;;;;;;3.55;1.73;;;;;;;;;;5073773;28;20446;-58
2023/04/15 10:53:42;;;;;;;3.15;2.47;;;;;;;;;;5073764;28;20054;-58
2023/04/15 10:56:09;;;;;;;6.10;3.30;;;;;;;;;;5074613;28;20363;-58
2023/04/15 10:58:42;;;;;;;2.78;1.95;;;;;;;;;;5073723;28;20044;-59
2023/04/15 11:01:08;;;;;;;3.53;1.73;;;;;;;;;;5073734;28;20456;-59
2023/04/15 11:03:38;;;;;;;4.15;2.13;;;;;;;;;;5073621;28;20111;-59
2023/04/15 11:06:05;;;;;;;3.55;2.25;;;;;;;;;;5074091;28;20027;-59
2023/04/15 11:08:50;;;;;;;3.10;1.83;;;;;;;;;;5073693;28;20029;-58
2023/04/15 11:11:16;;;;;;;4.93;1.50;;;;;;;;;;5074159;28;20343;-58
2023/04/15 11:13:49;;;;;;;5.07;2.10;;;;;;;;;;5073649;28;20039;-58
2023/04/15 11:16:15;;;;;;;3.00;2.25;;;;;;;;;;5074023;28;20048;-59
2023/04/15 11:18:41;;;;;;;7.60;2.70;;;;;;;;;;5073625;28;20076;-58
2023/04/15 11:21:08;;;;;;;4.75;2.58;;;;;;;;;;5074159;28;20098;-58
2023/04/15 11:23:47;;;;;;;3.15;2.03;;;;;;;;;;5073518;28;20060;-58
2023/04/15 11:26:14;;;;;;;6.97;2.42;;;;;;;;;;5073902;28;20378;-58
2023/04/15 11:28:41;;;;;;;2.47;1.70;;;;;;;;;;5073986;28;20032;-58
2023/04/15 11:31:18;;;;;;;2.78;2.13;;;;;;;;;;5074863;28;20482;-58
2023/04/15 11:34:05;;;;;;;3.30;2.80;;;;;;;;;;5078101;28;20021;-58
2023/04/15 11:36:31;;;;;;;4.40;2.97;;;;;;;;;;5078368;28;20047;-58
2023/04/15 11:38:58;;;;;;;4.38;2.65;;;;;;;;;;5077851;28;20029;-58
2023/04/15 11:41:24;;;;;;;3.85;2.75;;;;;;;;;;5077558;28;20020;-58
2023/04/15 11:43:50;;;;;;;6.35;2.50;;;;;;;;;;5077881;28;20128;-58
2023/04/15 11:46:16;;;;;;;3.97;2.13;;;;;;;;;;5077983;28;20052;-59
2023/04/15 11:48:43;;;;;;;2.72;1.85;;;;;;;;;;5077549;28;20035;-59
2023/04/15 11:51:09;;;;;;;5.18;2.78;;;;;;;;;;5077192;28;20074;-58
2023/04/15 11:53:39;;;;;;;3.03;1.98;;;;;;;;;;5077302;28;20103;-59
2023/04/15 11:56:06;;;;;;;3.50;2.10;;;;;;;;;;5077856;28;20025;-59
2023/04/15 11:58:34;;;;;;;6.00;2.83;;;;;;;;;;5077214;28;20266;-58
2023/04/15 12:01:00;;;;;;;6.00;2.00;;;;;;;;;;5077156;28;20031;-59
2023/04/15 12:03:30;;;;;;;6.72;2.90;;;;;;;;;;5077330;28;20046;-58
2023/04/15 12:06:06;;;;;;;5.60;2.28;;;;;;;;;;5077560;28;20020;-58
2023/04/15 12:08:54;;;;;;;3.55;2.40;;;;;;;;;;5076864;28;20052;-59
2023/04/15 12:11:20;;;;;;;5.15;2.92;;;;;;;;;;5076855;28;20459;-59
2023/04/15 12:13:47;;;;;;;4.18;2.78;;;;;;;;;;5076803;28;20446;-59
2023/04/15 12:16:16;;;;;;;4.28;2.58;;;;;;;;;;5077078;28;20355;-59
2023/04/15 12:18:45;;;;;;;8.45;2.92;;;;;;;;;;5076688;28;20036;-59
2023/04/15 12:21:11;;;;;;;5.55;2.88;;;;;;;;;;5077091;28;20086;-59
2023/04/15 12:23:38;;;;;;;3.13;2.45;;;;;;;;;;5076514;28;20064;-59
2023/04/15 12:26:07;;;;;;;6.97;3.25;;;;;;;;;;5076602;28;20029;-58
2023/04/15 12:28:36;;;;;;;4.65;2.80;;;;;;;;;;5076558;28;20036;-59
2023/04/15 12:31:09;;;;;;;5.80;2.58;;;;;;;;;;5076295;28;20056;-59
2023/04/15 12:33:35;;;;;;;3.42;2.38;;;;;;;;;;5076274;28;20047;-58
2023/04/15 12:36:01;;;;;;;4.50;2.38;;;;;;;;;;5077006;28;20016;-58
2023/04/15 12:38:27;;;;;;;2.28;1.42;;;;;;;;;;5076775;28;20029;-58
2023/04/15 12:40:53;;;;;;;3.55;1.90;;;;;;;;;;5076232;28;20024;-58
2023/04/15 12:43:19;;;;;;;3.97;2.50;;;;;;;;;;5075707;28;20032;-58
2023/04/15 12:45:45;;;;;;;3.22;2.03;;;;;;;;;;5076365;28;20036;-58
2023/04/15 12:48:11;;;;;;;2.38;1.63;;;;;;;;;;5076154;28;20091;-58
2023/04/15 12:50:37;;;;;;;2.60;2.03;;;;;;;;;;5076166;28;20029;-58
2023/04/15 12:53:03;;;;;;;2.92;2.17;;;;;;;;;;5076537;28;20081;-58
2023/04/15 12:55:30;;;;;;;4.68;2.58;;;;;;;;;;5076276;28;20477;-58
2023/04/15 12:57:56;;;;;;;4.03;2.58;;;;;;;;;;5075993;28;20071;-58
2023/04/15 13:00:22;;;;;;;2.70;2.03;;;;;;;;;;5075796;28;20064;-58
2023/04/15 13:02:48;;;;;;;3.85;2.20;;;;;;;;;;5076059;28;20024;-58
2023/04/15 13:05:14;;;;;;;5.07;2.80;;;;;;;;;;5076462;28;20031;-58
2023/04/15 13:07:41;;;;;;;3.53;2.75;;;;;;;;;;5075806;28;20027;-58
2023/04/15 13:10:07;;;;;;;3.22;1.92;;;;;;;;;;5076453;28;20366;-58
2023/04/15 13:12:36;;;;;;;2.65;1.92;;;;;;;;;;5075667;28;20119;-58
2023/04/15 13:15:03;;;;;;;4.65;2.67;;;;;;;;;;5076137;28;20053;-57
2023/04/15 13:17:29;;;;;;;3.97;2.58;;;;;;;;;;5075505;28;20039;-57
2023/04/15 13:19:55;;;;;;;7.70;2.75;;;;;;;;;;5075518;28;20040;-57
2023/04/15 13:22:21;;;;;;;3.85;2.08;;;;;;;;;;5075753;28;20094;-55
2023/04/15 13:24:48;;;;;;;3.65;2.20;;;;;;;;;;5075453;28;20060;-58
2023/04/15 13:27:14;;;;;;;3.03;1.95;;;;;;;;;;5075896;28;20036;-57
2023/04/15 13:29:40;;;;;;;5.90;3.00;;;;;;;;;;5076039;28;20029;-58
2023/04/15 13:32:06;;;;;;;3.28;1.95;;;;;;;;;;5075035;28;20027;-58
2023/04/15 13:34:32;;;;;;;2.83;1.77;;;;;;;;;;5075753;28;20028;-57
2023/04/15 13:36:58;;;;;;;2.35;1.65;;;;;;;;;;5075489;28;20365;-57
2023/04/15 13:39:24;;;;;;;4.35;2.10;;;;;;;;;;5075605;28;20075;-57
2023/04/15 13:41:50;;;;;;;2.70;1.88;;;;;;;;;;5074952;28;20455;-58
2023/04/15 13:44:16;;;;;;;3.20;1.77;;;;;;;;;;5074789;28;20024;-58
2023/04/15 13:46:42;;;;;;;2.35;1.55;;;;;;;;;;5075348;28;20031;-58
2023/04/15 13:49:08;;;;;;;2.38;1.33;;;;;;;;;;5074862;28;20155;-58
2023/04/15 13:51:35;;;;;;;3.70;2.15;;;;;;;;;;5075508;28;20374;-58
2023/04/15 13:54:01;;;;;;;4.05;1.33;;;;;;;;;;5074726;28;20024;-58
2023/04/15 13:56:28;;;;;;;1.58;0.93;;;;;;;;;;5075092;28;20028;-57
2023/04/15 13:58:57;;;;;;;2.28;1.17;;;;;;;;;;5075006;28;20040;-58
2023/04/15 14:01:23;;;;;;;2.60;0.98;;;;;;;;;;5075363;28;20031;-58
2023/04/15 14:03:49;;;;;;;2.90;1.20;;;;;;;;;;5074414;28;20115;-58
2023/04/15 14:06:15;;;;;;;1.40;0.95;;;;;;;;;;5075145;28;20020;-58
2023/04/15 14:08:41;;;;;;;1.90;1.00;;;;;;;;;;5075106;28;20035;-58
2023/04/15 14:11:07;;;;;;;3.10;1.05;;;;;;;;;;5074613;28;20028;-58
2023/04/15 14:13:33;;;;;;;2.85;1.27;;;;;;;;;;5074674;28;20055;-58
2023/04/15 14:16:07;;;;;;;2.08;1.33;;;;;;;;;;5071652;28;20433;-57
2023/04/15 14:18:33;;;;;;;2.70;1.00;;;;;;;;;;5071566;28;20032;-57
2023/04/15 14:20:59;;;;;;;2.88;0.85;;;;;;;;;;5070935;28;20029;-59
2023/04/15 14:23:25;;;;;;;2.20;0.70;;;;;;;;;;5071472;28;20103;-56
2023/04/15 14:25:51;;;;;;;1.20;0.65;;;;;;;;;;5071172;28;20031;-57
2023/04/15 14:28:17;;;;;;;2.90;1.60;;;;;;;;;;5071213;28;20031;-57
2023/04/15 14:30:43;;;;;;;3.97;0.80;;;;;;;;;;5071640;28;20025;-58
2023/04/15 14:33:09;;;;;;;1.33;0.70;;;;;;;;;;5071120;28;20025;-58
2023/04/15 14:35:35;;;;;;;1.95;0.68;;;;;;;;;;5071271;28;20060;-58
2023/04/15 14:38:01;;;;;;;1.80;0.80;;;;;;;;;;5071019;28;20063;-57
2023/04/15 14:40:27;;;;;;;2.22;0.70;;;;;;;;;;5070285;28;20420;-58